createdAt,value
2023-03-17T00:00:55.543Z,4.30
2023-03-17T00:01:55.512Z,4.00
2023-03-17T00:02:55.519Z,4.20
2023-03-17T00:03:55.514Z,4.20
2023-03-17T00:04:55.467Z,4.10
2023-03-17T00:05:55.470Z,4.10
2023-03-17T00:06:55.460Z,3.90
2023-03-17T00:07:55.476Z,4.00
2023-03-17T00:08:55.443Z,4.30
2023-03-17T00:09:55.427Z,4.70
2023-03-17T00:10:55.410Z,4.40
2023-03-17T00:11:55.401Z,4.40
2023-03-17T00:12:55.407Z,4.30
2023-03-17T00:13:55.379Z,4.30
2023-03-17T00:14:55.358Z,4.40
2023-03-17T00:15:55.427Z,4.50
2023-03-17T00:16:55.331Z,4.40
2023-03-17T00:17:55.354Z,4.50
2023-03-17T00:18:55.330Z,4.40
2023-03-17T00:19:55.302Z,4.30
2023-03-17T00:20:55.297Z,4.30
2023-03-17T00:21:55.280Z,4.40
2023-03-17T00:22:55.296Z,4.40
2023-03-17T00:23:55.265Z,4.30
2023-03-17T00:24:55.258Z,4.20
2023-03-17T00:25:55.248Z,4.40
2023-03-17T00:26:55.218Z,4.50
2023-03-17T00:27:55.232Z,4.50
2023-03-17T00:28:55.205Z,4.50
2023-03-17T00:29:55.185Z,4.30
2023-03-17T00:30:56.224Z,4.20
2023-03-17T00:31:55.177Z,4.60
2023-03-17T00:32:55.185Z,4.30
2023-03-17T00:33:55.142Z,4.40
2023-03-17T00:34:55.133Z,4.70
2023-03-17T00:35:55.139Z,4.50
2023-03-17T00:36:55.127Z,4.40
2023-03-17T00:37:55.119Z,4.70
2023-03-17T00:38:55.086Z,4.60
2023-03-17T00:39:55.106Z,4.10
2023-03-17T00:40:55.068Z,4.40
2023-03-17T00:41:55.046Z,4.40
2023-03-17T00:42:55.055Z,4.90
2023-03-17T00:43:55.033Z,4.80
2023-03-17T00:44:55.016Z,4.80
2023-03-17T00:45:55.014Z,5.00
2023-03-17T00:46:55.054Z,4.70
2023-03-17T00:47:55.005Z,4.80
2023-03-17T00:48:54.977Z,4.90
2023-03-17T00:49:54.970Z,4.80
2023-03-17T00:50:54.988Z,4.50
2023-03-17T00:51:55.006Z,4.80
2023-03-17T00:52:54.956Z,4.50
2023-03-17T00:53:54.923Z,4.70
2023-03-17T00:54:54.905Z,4.80
2023-03-17T00:55:54.896Z,4.70
2023-03-17T00:56:54.893Z,4.60
2023-03-17T00:57:54.896Z,4.60
2023-03-17T00:58:54.891Z,4.20
2023-03-17T00:59:54.855Z,4.10
2023-03-17T01:00:54.873Z,4.60
2023-03-17T01:01:54.901Z,4.70
2023-03-17T01:02:54.861Z,4.50
2023-03-17T01:03:54.812Z,4.50
2023-03-17T01:05:05.572Z,5.00
2023-03-17T01:05:56.785Z,4.80
2023-03-17T01:06:54.783Z,4.70
2023-03-17T01:07:54.778Z,4.60
2023-03-17T01:08:54.752Z,4.80
2023-03-17T01:09:54.761Z,4.70
2023-03-17T01:10:54.748Z,4.90
2023-03-17T01:11:54.717Z,4.50
2023-03-17T01:12:54.728Z,4.80
2023-03-17T01:13:54.701Z,4.90
2023-03-17T01:14:54.685Z,4.90
2023-03-17T01:15:54.721Z,5.20
2023-03-17T01:16:54.654Z,4.90
2023-03-17T01:17:54.677Z,4.80
2023-03-17T01:18:54.683Z,4.70
2023-03-17T01:19:54.624Z,4.70
2023-03-17T01:20:54.653Z,4.80
2023-03-17T01:21:54.598Z,4.80
2023-03-17T01:22:54.604Z,4.70
2023-03-17T01:23:54.577Z,4.80
2023-03-17T01:24:54.562Z,5.10
2023-03-17T01:25:54.563Z,4.60
2023-03-17T01:26:54.545Z,4.80
2023-03-17T01:27:54.542Z,4.60
2023-03-17T01:28:54.520Z,4.80
2023-03-17T01:29:54.519Z,5.10
2023-03-17T01:30:54.507Z,4.80
2023-03-17T01:31:54.526Z,4.60
2023-03-17T01:32:54.549Z,5.30
2023-03-17T01:33:54.457Z,4.80
2023-03-17T01:34:54.454Z,4.90
2023-03-17T01:35:54.492Z,5.00
2023-03-17T01:36:54.428Z,4.90
2023-03-17T01:37:54.441Z,5.20
2023-03-17T01:38:54.411Z,4.90
2023-03-17T01:39:54.409Z,5.20
2023-03-17T01:40:54.395Z,5.00
2023-03-17T01:41:54.381Z,5.00
2023-03-17T01:42:54.389Z,5.10
2023-03-17T01:43:54.353Z,4.90
2023-03-17T01:44:54.344Z,5.10
2023-03-17T01:45:54.352Z,4.80
2023-03-17T01:46:54.319Z,4.90
2023-03-17T01:47:54.344Z,4.80
2023-03-17T01:48:54.301Z,5.10
2023-03-17T01:49:54.300Z,5.00
2023-03-17T01:50:54.287Z,5.30
2023-03-17T01:51:54.298Z,4.80
2023-03-17T01:52:54.286Z,5.40
2023-03-17T01:53:54.251Z,5.10
2023-03-17T01:54:54.246Z,4.80
2023-03-17T01:55:54.264Z,4.70
2023-03-17T01:56:54.570Z,5.30
2023-03-17T01:57:56.416Z,5.10
2023-03-17T01:58:55.028Z,5.40
2023-03-17T01:59:55.724Z,5.30
2023-03-17T02:00:55.345Z,5.20
2023-03-17T02:01:55.309Z,5.40
2023-03-17T02:02:55.550Z,5.30
2023-03-17T02:03:54.980Z,5.00
2023-03-17T02:04:54.576Z,5.30
2023-03-17T02:05:54.423Z,4.80
2023-03-17T02:06:58.393Z,5.60
2023-03-17T02:07:55.364Z,5.30
2023-03-17T02:08:54.565Z,5.70
2023-03-17T02:09:55.575Z,6.00
2023-03-17T02:10:54.316Z,5.50
2023-03-17T02:11:58.080Z,6.00
2023-03-17T02:12:54.439Z,5.80
2023-03-17T02:13:55.335Z,5.50
2023-03-17T02:14:55.339Z,5.10
2023-03-17T02:15:54.410Z,5.40
2023-03-17T02:16:54.284Z,5.10
2023-03-17T02:17:55.140Z,5.20
2023-03-17T02:18:55.079Z,5.00
2023-03-17T02:19:54.962Z,5.10
2023-03-17T02:20:54.259Z,5.00
2023-03-17T02:21:54.779Z,5.20
2023-03-17T02:22:54.431Z,5.20
2023-03-17T02:23:55.933Z,5.10
2023-03-17T02:24:55.838Z,5.30
2023-03-17T02:25:54.204Z,4.90
2023-03-17T02:26:54.091Z,5.20
2023-03-17T02:27:54.309Z,5.50
2023-03-17T02:28:54.118Z,5.30
2023-03-17T02:29:57.088Z,5.20
2023-03-17T02:30:54.334Z,5.00
2023-03-17T02:31:54.680Z,5.30
2023-03-17T02:32:54.856Z,5.20
2023-03-17T02:33:54.965Z,5.30
2023-03-17T02:34:55.523Z,5.10
2023-03-17T02:35:54.265Z,5.40
2023-03-17T02:36:54.139Z,5.00
2023-03-17T02:37:54.908Z,5.00
2023-03-17T02:38:54.598Z,5.20
2023-03-17T02:39:54.512Z,4.90
2023-03-17T02:40:55.034Z,5.30
2023-03-17T02:41:54.060Z,4.80
2023-03-17T02:42:55.172Z,5.50
2023-03-17T02:43:54.293Z,5.10
2023-03-17T02:44:54.650Z,5.00
2023-03-17T02:45:54.943Z,5.50
2023-03-17T02:46:56.634Z,5.10
2023-03-17T02:47:56.199Z,5.00
2023-03-17T02:48:53.988Z,5.20
2023-03-17T02:49:56.637Z,5.20
2023-03-17T02:50:55.451Z,5.20
2023-03-17T02:52:00.168Z,5.70
2023-03-17T02:52:55.572Z,5.80
2023-03-17T02:53:58.308Z,5.10
2023-03-17T02:54:55.003Z,4.90
2023-03-17T02:55:56.832Z,5.00
2023-03-17T02:56:54.825Z,5.30
2023-03-17T02:57:54.939Z,5.20
2023-03-17T02:58:55.665Z,5.20
2023-03-17T02:59:56.587Z,5.30
2023-03-17T03:00:56.281Z,5.20
2023-03-17T03:01:53.733Z,5.10
2023-03-17T03:02:55.633Z,5.30
2023-03-17T03:03:53.859Z,5.20
2023-03-17T03:04:54.310Z,5.10
2023-03-17T03:05:55.104Z,5.30
2023-03-17T03:06:53.771Z,5.30
2023-03-17T03:07:57.282Z,5.10
2023-03-17T03:08:57.096Z,5.40
2023-03-17T03:09:53.715Z,5.40
2023-03-17T03:10:53.668Z,5.20
2023-03-17T03:11:53.739Z,5.30
2023-03-17T03:12:54.291Z,5.20
2023-03-17T03:13:53.788Z,5.20
2023-03-17T03:14:53.648Z,5.40
2023-03-17T03:15:54.448Z,5.40
2023-03-17T03:16:54.429Z,5.30
2023-03-17T03:17:53.638Z,5.50
2023-03-17T03:18:54.355Z,5.30
2023-03-17T03:19:56.289Z,5.30
2023-03-17T03:20:53.555Z,5.00
2023-03-17T03:21:53.566Z,5.20
2023-03-17T03:22:56.310Z,5.30
2023-03-17T03:23:54.310Z,5.30
2023-03-17T03:24:54.303Z,5.30
2023-03-17T03:25:54.690Z,5.60
2023-03-17T03:26:54.424Z,5.60
2023-03-17T03:27:53.496Z,6.10
2023-03-17T03:28:53.683Z,6.10
2023-03-17T03:29:55.253Z,6.30
2023-03-17T03:30:53.520Z,6.40
2023-03-17T03:31:53.513Z,6.60
2023-03-17T03:32:56.465Z,5.70
2023-03-17T03:33:53.549Z,6.00
2023-03-17T03:34:54.368Z,6.30
2023-03-17T03:35:54.907Z,5.70
2023-03-17T03:36:53.475Z,5.70
2023-03-17T03:37:55.645Z,5.60
2023-03-17T03:38:54.434Z,6.00
2023-03-17T03:39:54.290Z,6.00
2023-03-17T03:40:53.893Z,5.60
2023-03-17T03:41:53.418Z,5.60
2023-03-17T03:42:53.923Z,5.70
2023-03-17T03:43:54.910Z,5.80
2023-03-17T03:44:55.284Z,5.70
2023-03-17T03:45:54.571Z,5.60
2023-03-17T03:46:55.446Z,5.60
2023-03-17T03:47:53.924Z,5.80
2023-03-17T03:48:54.662Z,5.50
2023-03-17T03:49:54.959Z,5.80
2023-03-17T03:50:54.264Z,5.50
2023-03-17T03:51:55.387Z,5.60
2023-03-17T03:52:54.474Z,5.90
2023-03-17T03:53:54.489Z,5.40
2023-03-17T03:54:55.144Z,5.30
2023-03-17T03:55:53.988Z,5.50
2023-03-17T03:56:53.277Z,5.50
2023-03-17T03:57:54.902Z,5.40
2023-03-17T03:58:56.472Z,5.30
2023-03-17T03:59:57.431Z,5.40
2023-03-17T04:00:58.118Z,5.40
2023-03-17T04:01:56.470Z,5.70
2023-03-17T04:02:54.045Z,5.70
2023-03-17T04:03:53.886Z,5.70
2023-03-17T04:04:53.838Z,5.50
2023-03-17T04:05:54.160Z,5.50
2023-03-17T04:06:53.250Z,5.30
2023-03-17T04:07:55.142Z,5.30
2023-03-17T04:08:54.144Z,5.00
2023-03-17T04:09:59.808Z,5.20
2023-03-17T04:10:56.631Z,5.30
2023-03-17T04:11:53.182Z,5.10
2023-03-17T04:12:54.127Z,5.40
2023-03-17T04:13:54.628Z,5.20
2023-03-17T04:14:54.636Z,5.10
2023-03-17T04:15:53.939Z,5.00
2023-03-17T04:16:53.281Z,5.30
2023-03-17T04:17:55.687Z,5.70
2023-03-17T04:18:55.697Z,5.10
2023-03-17T04:19:54.757Z,5.30
2023-03-17T04:20:54.625Z,5.10
2023-03-17T04:21:54.764Z,5.40
2023-03-17T04:22:55.638Z,5.50
2023-03-17T04:23:53.143Z,5.40
2023-03-17T04:24:53.629Z,5.40
2023-03-17T04:25:54.632Z,5.40
2023-03-17T04:26:53.971Z,5.60
2023-03-17T04:27:53.887Z,5.80
2023-03-17T04:28:53.074Z,5.50
2023-03-17T04:29:54.407Z,5.20
2023-03-17T04:30:52.967Z,5.60
2023-03-17T04:31:54.515Z,5.30
2023-03-17T04:32:53.933Z,5.20
2023-03-17T04:33:54.139Z,5.50
2023-03-17T04:34:54.907Z,5.40
2023-03-17T04:35:53.129Z,5.30
2023-03-17T04:36:53.622Z,5.40
2023-03-17T04:37:54.685Z,5.50
2023-03-17T04:39:01.882Z,5.20
2023-03-17T04:39:56.620Z,5.30
2023-03-17T04:40:53.379Z,5.30
2023-03-17T04:41:52.916Z,5.00
2023-03-17T04:42:54.383Z,5.20
2023-03-17T04:43:53.954Z,5.60
2023-03-17T04:44:53.815Z,4.80
2023-03-17T04:45:54.463Z,5.50
2023-03-17T04:46:53.634Z,5.00
2023-03-17T04:47:53.439Z,5.10
2023-03-17T04:48:54.139Z,5.40
2023-03-17T04:49:52.751Z,5.40
2023-03-17T04:50:53.420Z,5.30
2023-03-17T04:51:54.676Z,5.20
2023-03-17T04:52:53.581Z,5.30
2023-03-17T04:53:54.801Z,5.50
2023-03-17T04:54:54.362Z,5.20
2023-03-17T04:55:54.119Z,5.50
2023-03-17T04:56:54.361Z,5.30
2023-03-17T04:57:54.056Z,5.40
2023-03-17T04:58:53.397Z,5.30
2023-03-17T04:59:54.412Z,5.10
2023-03-17T05:00:52.962Z,4.80
2023-03-17T05:01:54.588Z,5.10
2023-03-17T05:02:53.414Z,5.30
2023-03-17T05:03:52.975Z,5.40
2023-03-17T05:04:56.306Z,5.80
2023-03-17T05:05:54.100Z,5.40
2023-03-17T05:06:53.652Z,5.60
2023-03-17T05:07:54.512Z,5.40
2023-03-17T05:08:53.599Z,5.00
2023-03-17T05:09:54.644Z,5.10
2023-03-17T05:10:54.390Z,5.40
2023-03-17T05:11:54.373Z,5.30
2023-03-17T05:12:54.135Z,5.10
2023-03-17T05:13:55.120Z,5.60
2023-03-17T05:14:52.830Z,6.30
2023-03-17T05:15:52.654Z,5.40
2023-03-17T05:16:54.548Z,5.70
2023-03-17T05:17:53.291Z,5.60
2023-03-17T05:18:59.229Z,5.60
2023-03-17T05:19:54.573Z,5.50
2023-03-17T05:20:53.325Z,5.40
2023-03-17T05:21:53.314Z,6.00
2023-03-17T05:22:53.358Z,5.30
2023-03-17T05:23:54.929Z,5.40
2023-03-17T05:24:56.242Z,5.20
2023-03-17T05:25:53.407Z,5.10
2023-03-17T05:26:54.321Z,5.30
2023-03-17T05:27:53.385Z,5.50
2023-03-17T05:28:53.392Z,5.30
2023-03-17T05:29:53.329Z,5.50
2023-03-17T05:30:53.590Z,5.00
2023-03-17T05:31:54.294Z,5.00
2023-03-17T05:32:53.566Z,5.40
2023-03-17T05:33:52.374Z,5.20
2023-03-17T05:34:52.533Z,5.20
2023-03-17T05:35:52.850Z,5.40
2023-03-17T05:36:53.107Z,4.90
2023-03-17T05:37:52.324Z,5.80
2023-03-17T05:38:52.468Z,5.60
2023-03-17T05:39:54.125Z,5.50
2023-03-17T05:40:56.058Z,5.30
2023-03-17T05:41:53.608Z,5.80
2023-03-17T05:42:53.115Z,5.70
2023-03-17T05:43:52.882Z,5.70
2023-03-17T05:44:55.222Z,5.60
2023-03-17T05:45:53.818Z,5.40
2023-03-17T05:46:52.344Z,5.80
2023-03-17T05:47:52.336Z,5.10
2023-03-17T05:48:53.102Z,5.10
2023-03-17T05:49:52.348Z,5.70
2023-03-17T05:50:53.752Z,5.60
2023-03-17T05:51:52.749Z,5.70
2023-03-17T05:52:53.089Z,5.70
2023-03-17T05:53:52.212Z,5.50
2023-03-17T05:54:52.384Z,5.60
2023-03-17T05:55:53.302Z,5.70
2023-03-17T05:56:52.177Z,6.30
2023-03-17T05:57:52.170Z,5.90
2023-03-17T05:58:52.187Z,5.80
2023-03-17T05:59:52.931Z,6.40
2023-03-17T06:00:52.110Z,6.40
2023-03-17T06:01:52.120Z,7.00
2023-03-17T06:02:52.379Z,7.00
2023-03-17T06:03:55.915Z,8.00
2023-03-17T06:04:52.750Z,8.00
2023-03-17T06:05:57.575Z,7.70
2023-03-17T06:06:52.845Z,7.50
2023-03-17T06:07:57.195Z,7.80
2023-03-17T06:08:53.926Z,7.50
2023-03-17T06:09:53.253Z,7.10
2023-03-17T06:10:53.402Z,7.10
2023-03-17T06:11:52.180Z,7.00
2023-03-17T06:13:03.667Z,7.30
2023-03-17T06:13:52.951Z,6.50
2023-03-17T06:15:25.732Z,6.90
2023-03-17T06:15:51.803Z,7.30
2023-03-17T06:16:51.762Z,8.00
2023-03-17T06:17:51.735Z,7.80
2023-03-17T06:18:51.729Z,8.60
2023-03-17T06:19:51.764Z,8.00
2023-03-17T06:20:51.713Z,8.70
2023-03-17T06:21:51.702Z,7.20
2023-03-17T06:23:03.408Z,6.90
2023-03-17T06:23:53.689Z,7.30
2023-03-17T06:24:51.697Z,6.80
2023-03-17T06:25:52.670Z,6.40
2023-03-17T06:26:51.661Z,6.40
2023-03-17T06:27:51.647Z,6.20
2023-03-17T06:28:51.637Z,6.50
2023-03-17T06:29:51.645Z,6.20
2023-03-17T06:30:51.739Z,6.20
2023-03-17T06:31:51.611Z,6.50
2023-03-17T06:32:51.666Z,6.80
2023-03-17T06:33:51.606Z,6.80
2023-03-17T06:34:51.605Z,7.10
2023-03-17T06:35:51.644Z,6.40
2023-03-17T06:36:51.562Z,6.30
2023-03-17T06:37:51.569Z,5.60
2023-03-17T06:38:51.542Z,5.40
2023-03-17T06:39:51.543Z,5.00
2023-03-17T06:40:51.531Z,4.80
2023-03-17T06:41:51.527Z,4.50
2023-03-17T06:42:51.509Z,4.20
2023-03-17T06:43:51.495Z,4.70
2023-03-17T06:44:51.497Z,4.60
2023-03-17T06:45:51.483Z,4.70
2023-03-17T06:46:51.580Z,5.50
2023-03-17T06:47:51.455Z,6.20
2023-03-17T06:48:51.433Z,5.50
2023-03-17T06:49:51.440Z,5.00
2023-03-17T06:50:51.477Z,5.50
2023-03-17T06:51:51.415Z,5.70
2023-03-17T06:52:51.399Z,6.00
2023-03-17T06:53:51.382Z,6.20
2023-03-17T06:54:51.406Z,5.00
2023-03-17T06:55:51.395Z,5.30
2023-03-17T06:56:51.356Z,5.30
2023-03-17T06:57:51.531Z,5.20
2023-03-17T06:58:51.330Z,4.70
2023-03-17T06:59:51.316Z,4.70
2023-03-17T07:00:51.324Z,4.40
2023-03-17T07:01:51.370Z,4.40
2023-03-17T07:02:51.298Z,4.40
2023-03-17T07:03:51.271Z,4.90
2023-03-17T07:04:51.341Z,4.70
2023-03-17T07:05:51.250Z,4.70
2023-03-17T07:06:51.235Z,4.70
2023-03-17T07:07:51.236Z,4.40
2023-03-17T07:08:52.287Z,4.50
2023-03-17T07:09:51.307Z,4.60
2023-03-17T07:10:51.196Z,4.20
2023-03-17T07:11:51.194Z,4.90
2023-03-17T07:12:51.176Z,5.20
2023-03-17T07:13:51.173Z,5.00
2023-03-17T07:14:51.174Z,4.60
2023-03-17T07:15:52.784Z,4.40
2023-03-17T07:16:51.199Z,4.70
2023-03-17T07:17:51.124Z,4.80
2023-03-17T07:18:51.124Z,4.80
2023-03-17T07:19:51.093Z,4.80
2023-03-17T07:20:51.124Z,4.80
2023-03-17T07:21:51.110Z,4.80
2023-03-17T07:22:51.068Z,4.60
2023-03-17T07:23:51.065Z,4.40
2023-03-17T07:24:51.053Z,4.40
2023-03-17T07:25:51.083Z,4.30
2023-03-17T07:26:51.039Z,4.20
2023-03-17T07:27:51.013Z,4.40
2023-03-17T07:28:50.996Z,4.10
2023-03-17T07:29:51.036Z,4.60
2023-03-17T07:30:50.984Z,4.50
2023-03-17T07:31:51.010Z,4.00
2023-03-17T07:32:51.027Z,4.20
2023-03-17T07:33:50.946Z,4.10
2023-03-17T07:34:51.000Z,4.10
2023-03-17T07:35:50.966Z,4.00
2023-03-17T07:36:50.907Z,4.00
2023-03-17T07:37:51.905Z,4.10
2023-03-17T07:38:50.902Z,4.10
2023-03-17T07:39:50.917Z,3.90
2023-03-17T07:40:50.892Z,4.00
2023-03-17T07:41:50.891Z,4.10
2023-03-17T07:42:50.870Z,4.00
2023-03-17T07:43:50.872Z,3.90
2023-03-17T07:44:50.862Z,3.80
2023-03-17T07:45:50.847Z,4.00
2023-03-17T07:46:50.821Z,3.90
2023-03-17T07:47:50.794Z,3.90
2023-03-17T07:48:50.801Z,3.70
2023-03-17T07:49:50.821Z,4.00
2023-03-17T07:50:50.770Z,3.90
2023-03-17T07:51:50.781Z,4.20
2023-03-17T07:52:50.793Z,4.10
2023-03-17T07:53:50.731Z,3.90
2023-03-17T07:54:50.747Z,3.80
2023-03-17T07:55:50.736Z,3.60
2023-03-17T07:56:50.726Z,4.00
2023-03-17T07:57:50.842Z,3.80
2023-03-17T07:58:50.700Z,3.90
2023-03-17T07:59:50.708Z,4.10
2023-03-17T08:00:50.739Z,4.00
2023-03-17T08:01:50.753Z,4.00
2023-03-17T08:03:06.909Z,3.90
2023-03-17T08:03:52.716Z,3.90
2023-03-17T08:04:50.680Z,3.90
2023-03-17T08:05:50.616Z,3.80
2023-03-17T08:06:50.636Z,4.00
2023-03-17T08:07:50.598Z,3.70
2023-03-17T08:08:50.612Z,3.70
2023-03-17T08:09:50.617Z,3.90
2023-03-17T08:10:50.581Z,3.60
2023-03-17T08:11:50.602Z,3.80
2023-03-17T08:12:50.553Z,4.00
2023-03-17T08:13:50.533Z,3.80
2023-03-17T08:14:50.524Z,3.60
2023-03-17T08:15:50.551Z,3.80
2023-03-17T08:16:50.538Z,3.80
2023-03-17T08:17:50.498Z,4.00
2023-03-17T08:18:50.486Z,4.10
2023-03-17T08:19:50.479Z,3.90
2023-03-17T08:20:50.500Z,4.00
2023-03-17T08:21:50.487Z,3.60
2023-03-17T08:22:50.463Z,3.80
2023-03-17T08:23:50.582Z,3.90
2023-03-17T08:24:50.429Z,3.90
2023-03-17T08:25:50.448Z,3.90
2023-03-17T08:26:50.405Z,4.00
2023-03-17T08:27:50.443Z,3.80
2023-03-17T08:28:50.403Z,4.00
2023-03-17T08:29:50.385Z,3.70
2023-03-17T08:30:50.850Z,3.90
2023-03-17T08:31:51.465Z,3.80
2023-03-17T08:32:50.417Z,3.80
2023-03-17T08:33:50.356Z,3.60
2023-03-17T08:34:50.338Z,3.90
2023-03-17T08:35:50.561Z,3.70
2023-03-17T08:36:50.323Z,3.70
2023-03-17T08:37:50.315Z,3.80
2023-03-17T08:38:50.292Z,3.50
2023-03-17T08:39:50.287Z,4.10
2023-03-17T08:40:50.305Z,3.80
2023-03-17T08:41:50.276Z,4.00
2023-03-17T08:42:50.262Z,4.30
2023-03-17T08:43:50.248Z,3.50
2023-03-17T08:44:50.249Z,3.60
2023-03-17T08:45:50.349Z,3.40
2023-03-17T08:46:50.232Z,3.80
2023-03-17T08:47:50.237Z,3.50
2023-03-17T08:48:50.211Z,3.50
2023-03-17T08:49:50.191Z,3.70
2023-03-17T08:50:50.212Z,3.80
2023-03-17T08:51:50.192Z,3.40
2023-03-17T08:52:50.171Z,3.50
2023-03-17T08:53:50.155Z,3.60
2023-03-17T08:54:50.146Z,3.60
2023-03-17T08:55:50.140Z,3.50
2023-03-17T08:56:50.149Z,3.50
2023-03-17T08:57:50.111Z,3.20
2023-03-17T08:58:50.111Z,3.40
2023-03-17T08:59:50.097Z,3.40
2023-03-17T09:00:50.092Z,3.60
2023-03-17T09:01:50.123Z,3.80
2023-03-17T09:02:50.104Z,3.60
2023-03-17T09:03:50.055Z,3.70
2023-03-17T09:04:50.036Z,3.70
2023-03-17T09:05:50.037Z,3.40
2023-03-17T09:07:02.291Z,3.50
2023-03-17T09:07:52.031Z,3.50
2023-03-17T09:08:50.009Z,3.50
2023-03-17T09:09:50.002Z,3.60
2023-03-17T09:10:49.982Z,3.50
2023-03-17T09:11:49.996Z,3.60
2023-03-17T09:12:49.975Z,3.50
2023-03-17T09:13:49.946Z,3.50
2023-03-17T09:14:49.945Z,3.60
2023-03-17T09:15:51.860Z,3.90
2023-03-17T09:16:50.931Z,3.60
2023-03-17T09:17:49.916Z,3.90
2023-03-17T09:18:49.905Z,4.20
2023-03-17T09:19:49.919Z,3.70
2023-03-17T09:20:49.898Z,3.60
2023-03-17T09:21:49.871Z,3.80
2023-03-17T09:22:49.862Z,3.50
2023-03-17T09:23:49.861Z,3.90
2023-03-17T09:24:49.847Z,3.90
2023-03-17T09:25:49.844Z,3.90
2023-03-17T09:26:49.827Z,4.10
2023-03-17T09:27:49.847Z,3.90
2023-03-17T09:28:49.806Z,3.80
2023-03-17T09:29:49.790Z,3.90
2023-03-17T09:30:49.830Z,3.80
2023-03-17T09:31:49.766Z,3.90
2023-03-17T09:32:49.820Z,3.80
2023-03-17T09:33:49.758Z,3.70
2023-03-17T09:34:51.667Z,3.60
2023-03-17T09:35:50.831Z,3.70
2023-03-17T09:36:49.720Z,3.60
2023-03-17T09:37:49.710Z,3.70
2023-03-17T09:38:49.703Z,3.30
2023-03-17T09:39:49.732Z,3.50
2023-03-17T09:40:49.713Z,3.50
2023-03-17T09:41:49.674Z,3.50
2023-03-17T09:42:49.670Z,3.30
2023-03-17T09:43:49.654Z,3.40
2023-03-17T09:44:50.650Z,3.50
2023-03-17T09:45:49.649Z,3.30
2023-03-17T09:46:49.681Z,3.60
2023-03-17T09:47:49.606Z,3.50
2023-03-17T09:48:49.599Z,3.70
2023-03-17T09:49:49.604Z,3.40
2023-03-17T09:50:49.607Z,3.50
2023-03-17T09:51:49.577Z,3.70
2023-03-17T09:52:51.395Z,3.80
2023-03-17T09:53:50.557Z,3.40
2023-03-17T09:54:49.563Z,3.50
2023-03-17T09:55:49.592Z,3.80
2023-03-17T09:56:49.517Z,3.50
2023-03-17T09:57:49.510Z,3.80
2023-03-17T09:58:51.220Z,3.60
2023-03-17T09:59:50.487Z,3.60
2023-03-17T10:00:49.497Z,3.90
2023-03-17T10:01:49.494Z,3.50
2023-03-17T10:02:49.457Z,4.10
2023-03-17T10:03:49.457Z,4.00
2023-03-17T10:04:49.499Z,3.60
2023-03-17T10:05:49.499Z,4.00
2023-03-17T10:06:49.429Z,3.80
2023-03-17T10:07:49.404Z,3.70
2023-03-17T10:08:49.412Z,3.50
2023-03-17T10:09:49.397Z,3.50
2023-03-17T10:10:49.400Z,4.10
2023-03-17T10:11:49.379Z,3.70
2023-03-17T10:12:49.365Z,4.20
2023-03-17T10:13:49.393Z,4.20
2023-03-17T10:14:51.213Z,3.60
2023-03-17T10:15:50.365Z,4.00
2023-03-17T10:16:49.329Z,3.90
2023-03-17T10:17:49.320Z,4.00
2023-03-17T10:18:49.308Z,4.20
2023-03-17T10:19:49.332Z,3.90
2023-03-17T10:20:51.528Z,4.00
2023-03-17T10:21:50.293Z,3.90
2023-03-17T10:22:49.272Z,4.10
2023-03-17T10:23:49.265Z,3.70
2023-03-17T10:24:49.263Z,4.00
2023-03-17T10:25:49.244Z,4.10
2023-03-17T10:26:49.230Z,4.30
2023-03-17T10:27:49.237Z,4.10
2023-03-17T10:28:49.206Z,4.50
2023-03-17T10:29:49.212Z,4.10
2023-03-17T10:30:49.214Z,4.10
2023-03-17T10:31:49.206Z,3.90
2023-03-17T10:32:49.180Z,3.90
2023-03-17T10:33:49.159Z,3.70
2023-03-17T10:34:49.143Z,4.00
2023-03-17T10:35:49.182Z,5.20
2023-03-17T10:36:49.146Z,5.40
2023-03-17T10:37:49.119Z,4.20
2023-03-17T10:38:49.119Z,3.80
2023-03-17T10:39:49.115Z,4.20
2023-03-17T10:40:49.113Z,3.80
2023-03-17T10:41:49.073Z,4.10
2023-03-17T10:42:49.083Z,3.50
2023-03-17T10:43:49.059Z,3.80
2023-03-17T10:44:49.046Z,3.90
2023-03-17T10:45:49.057Z,3.60
2023-03-17T10:46:49.078Z,3.60
2023-03-17T10:47:49.026Z,3.70
2023-03-17T10:48:49.001Z,3.50
2023-03-17T10:49:48.996Z,3.60
2023-03-17T10:50:49.684Z,3.70
2023-03-17T10:51:49.969Z,3.70
2023-03-17T10:52:48.963Z,3.30
2023-03-17T10:53:48.959Z,3.70
2023-03-17T10:54:48.939Z,3.50
2023-03-17T10:55:48.948Z,3.90
2023-03-17T10:56:48.936Z,3.60
2023-03-17T10:57:48.935Z,3.40
2023-03-17T10:58:48.916Z,3.50
2023-03-17T10:59:48.883Z,3.40
2023-03-17T11:00:48.944Z,3.70
2023-03-17T11:01:48.873Z,3.50
2023-03-17T11:02:48.871Z,3.90
2023-03-17T11:03:48.950Z,4.10
2023-03-17T11:04:48.852Z,3.50
2023-03-17T11:05:48.892Z,3.60
2023-03-17T11:06:48.812Z,3.50
2023-03-17T11:07:48.822Z,3.70
2023-03-17T11:08:48.810Z,3.80
2023-03-17T11:09:48.804Z,3.40
2023-03-17T11:10:48.786Z,3.40
2023-03-17T11:11:48.815Z,3.80
2023-03-17T11:12:48.783Z,3.50
2023-03-17T11:13:48.774Z,3.50
2023-03-17T11:14:48.756Z,3.80
2023-03-17T11:15:48.733Z,3.60
2023-03-17T11:16:48.817Z,3.30
2023-03-17T11:17:48.757Z,3.50
2023-03-17T11:18:49.673Z,3.80
2023-03-17T11:19:48.723Z,3.70
2023-03-17T11:20:48.675Z,3.40
2023-03-17T11:21:48.698Z,3.50
2023-03-17T11:22:48.671Z,3.40
2023-03-17T11:23:48.656Z,3.40
2023-03-17T11:24:48.650Z,3.20
2023-03-17T11:25:48.648Z,3.10
2023-03-17T11:26:48.649Z,3.10
2023-03-17T11:27:48.613Z,3.30
2023-03-17T11:28:48.607Z,3.30
2023-03-17T11:29:48.598Z,3.20
2023-03-17T11:30:48.598Z,3.40
2023-03-17T11:31:48.765Z,3.40
2023-03-17T11:32:48.574Z,3.40
2023-03-17T11:33:48.557Z,3.20
2023-03-17T11:34:48.543Z,3.30
2023-03-17T11:35:48.565Z,3.40
2023-03-17T11:36:48.540Z,3.30
2023-03-17T11:37:48.519Z,3.10
2023-03-17T11:38:48.516Z,3.20
2023-03-17T11:39:48.506Z,3.30
2023-03-17T11:40:48.498Z,3.10
2023-03-17T11:41:48.508Z,3.30
2023-03-17T11:42:48.475Z,3.20
2023-03-17T11:43:48.473Z,3.00
2023-03-17T11:44:48.451Z,3.20
2023-03-17T11:45:48.474Z,3.20
2023-03-17T11:46:48.454Z,2.80
2023-03-17T11:47:48.433Z,3.30
2023-03-17T11:48:48.415Z,3.40
2023-03-17T11:49:48.403Z,3.30
2023-03-17T11:50:48.400Z,3.10
2023-03-17T11:51:48.411Z,3.30
2023-03-17T11:52:48.376Z,3.20
2023-03-17T11:53:48.368Z,3.20
2023-03-17T11:54:48.362Z,3.10
2023-03-17T11:55:48.359Z,3.30
2023-03-17T11:56:48.369Z,3.00
2023-03-17T11:57:48.347Z,2.80
2023-03-17T11:58:48.311Z,3.40
2023-03-17T11:59:48.303Z,3.10
2023-03-17T12:00:48.301Z,3.30
2023-03-17T12:01:48.312Z,3.30
2023-03-17T12:02:48.282Z,3.00
2023-03-17T12:03:48.345Z,3.60
2023-03-17T12:04:48.315Z,3.10
2023-03-17T12:05:48.253Z,3.00
2023-03-17T12:06:48.253Z,3.00
2023-03-17T12:07:48.251Z,2.90
2023-03-17T12:08:48.227Z,2.90
2023-03-17T12:09:48.204Z,2.90
2023-03-17T12:10:48.207Z,2.90
2023-03-17T12:11:48.203Z,2.90
2023-03-17T12:12:48.185Z,2.90
2023-03-17T12:13:48.170Z,2.90
2023-03-17T12:14:48.152Z,2.90
2023-03-17T12:15:48.151Z,2.60
2023-03-17T12:16:48.162Z,2.70
2023-03-17T12:17:48.118Z,2.30
2023-03-17T12:18:48.109Z,2.20
2023-03-17T12:19:48.107Z,2.40
2023-03-17T12:20:48.102Z,2.20
2023-03-17T12:21:48.124Z,2.30
2023-03-17T12:22:48.081Z,2.30
2023-03-17T12:23:48.069Z,2.30
2023-03-17T12:24:48.058Z,2.10
2023-03-17T12:25:48.053Z,2.20
2023-03-17T12:26:48.062Z,2.40
2023-03-17T12:27:48.025Z,2.30
2023-03-17T12:28:48.019Z,2.50
2023-03-17T12:29:48.007Z,2.70
2023-03-17T12:30:48.051Z,2.30
2023-03-17T12:31:48.024Z,2.20
2023-03-17T12:32:48.025Z,2.40
2023-03-17T12:33:47.985Z,2.30
2023-03-17T12:34:47.956Z,2.40
2023-03-17T12:35:48.070Z,2.10
2023-03-17T12:36:47.960Z,2.30
2023-03-17T12:37:47.929Z,2.20
2023-03-17T12:38:47.927Z,2.10
2023-03-17T12:39:47.902Z,2.10
2023-03-17T12:40:47.900Z,2.50
2023-03-17T12:41:47.925Z,2.40
2023-03-17T12:42:47.879Z,2.70
2023-03-17T12:43:47.870Z,2.50
2023-03-17T12:44:47.906Z,2.50
2023-03-17T12:45:47.852Z,2.30
2023-03-17T12:46:47.968Z,2.50
2023-03-17T12:47:47.837Z,2.80
2023-03-17T12:48:47.825Z,2.40
2023-03-17T12:49:47.821Z,2.50
2023-03-17T12:50:47.804Z,2.40
2023-03-17T12:51:47.814Z,2.20
2023-03-17T12:52:47.788Z,2.40
2023-03-17T12:53:47.837Z,2.30
2023-03-17T12:55:19.664Z,2.50
2023-03-17T12:55:47.754Z,2.70
2023-03-17T12:56:47.775Z,2.30
2023-03-17T12:57:47.729Z,2.20
2023-03-17T12:58:47.733Z,2.40
2023-03-17T12:59:47.737Z,2.40
2023-03-17T13:00:47.738Z,2.20
2023-03-17T13:01:47.826Z,2.30
2023-03-17T13:02:47.747Z,2.70
2023-03-17T13:03:47.669Z,2.50
2023-03-17T13:04:47.662Z,2.30
2023-03-17T13:05:47.656Z,2.20
2023-03-17T13:06:47.667Z,2.30
2023-03-17T13:07:47.635Z,2.20
2023-03-17T13:08:47.636Z,2.80
2023-03-17T13:09:47.611Z,3.00
2023-03-17T13:10:47.599Z,2.80
2023-03-17T13:11:47.669Z,2.50
2023-03-17T13:12:47.576Z,2.50
2023-03-17T13:13:47.566Z,2.80
2023-03-17T13:14:47.564Z,2.20
2023-03-17T13:15:47.589Z,2.20
2023-03-17T13:16:47.569Z,2.10
2023-03-17T13:17:47.530Z,2.20
2023-03-17T13:18:47.534Z,2.00